createdAt,value
2019-03-27T00:01:11.828Z,7.00
2019-03-27T00:03:41.338Z,7.00
2019-03-27T00:06:10.860Z,7.00
2019-03-27T00:08:40.578Z,7.00
2019-03-27T00:11:10.059Z,7.00
2019-03-27T00:13:39.545Z,7.00
2019-03-27T00:16:09.324Z,7.00
2019-03-27T00:18:38.779Z,7.10
2019-03-27T00:21:08.510Z,7.10
2019-03-27T00:23:38.107Z,7.10
2019-03-27T00:26:07.931Z,7.10
2019-03-27T00:28:38.470Z,7.10
2019-03-27T00:31:11.617Z,7.10
2019-03-27T00:33:39.443Z,7.20
2019-03-27T00:36:11.676Z,7.20
2019-03-27T00:38:41.105Z,7.20
2019-03-27T00:41:11.036Z,7.20
2019-03-27T00:43:41.624Z,7.20
2019-03-27T00:46:11.686Z,7.20
2019-03-27T00:48:41.186Z,7.20
2019-03-27T00:51:11.071Z,7.30
2019-03-27T00:53:40.479Z,7.30
2019-03-27T00:56:12.083Z,7.30
2019-03-27T00:58:41.550Z,7.30
2019-03-27T01:01:12.176Z,7.40
2019-03-27T01:03:41.646Z,7.30
2019-03-27T01:06:11.662Z,7.30
2019-03-27T01:08:41.502Z,7.40
2019-03-27T01:11:11.294Z,7.30
2019-03-27T01:13:40.723Z,7.30
2019-03-27T01:16:10.538Z,7.30
2019-03-27T01:18:40.243Z,7.20
2019-03-27T01:21:09.779Z,7.20
2019-03-27T01:23:39.248Z,7.30
2019-03-27T01:26:08.907Z,7.30
2019-03-27T01:28:38.435Z,7.30
2019-03-27T01:31:08.836Z,7.30
2019-03-27T01:33:41.634Z,7.30
2019-03-27T01:36:11.559Z,7.30
2019-03-27T01:38:41.054Z,7.40
2019-03-27T01:41:10.487Z,7.30
2019-03-27T01:43:40.107Z,7.30
2019-03-27T01:46:09.647Z,7.30
2019-03-27T01:48:39.367Z,7.20
2019-03-27T01:51:08.868Z,7.20
2019-03-27T01:53:38.370Z,7.20
2019-03-27T01:56:07.995Z,7.20
2019-03-27T01:58:37.478Z,7.20
2019-03-27T02:01:06.899Z,7.20
2019-03-27T02:03:36.451Z,7.10
2019-03-27T02:06:06.447Z,7.20
2019-03-27T02:08:35.879Z,7.20
2019-03-27T02:11:06.636Z,7.10
2019-03-27T02:13:36.096Z,7.20
2019-03-27T02:16:07.087Z,7.20
2019-03-27T02:18:37.104Z,7.20
2019-03-27T02:21:06.750Z,7.20
2019-03-27T02:23:37.392Z,7.20
2019-03-27T02:26:06.818Z,7.00
2019-03-27T02:28:36.246Z,7.10
2019-03-27T02:31:05.789Z,7.10
2019-03-27T02:33:35.324Z,7.20
2019-03-27T02:36:05.053Z,7.10
2019-03-27T02:38:34.506Z,7.20
2019-03-27T02:41:04.022Z,7.10
2019-03-27T02:43:33.646Z,7.10
2019-03-27T02:46:03.155Z,7.10
2019-03-27T02:48:32.632Z,7.20
2019-03-27T02:51:02.247Z,7.20
2019-03-27T02:53:31.863Z,7.20
2019-03-27T02:56:01.401Z,7.20
2019-03-27T02:58:31.005Z,7.20
2019-03-27T03:01:00.732Z,7.20
2019-03-27T03:03:30.226Z,7.20
2019-03-27T03:05:59.782Z,7.10
2019-03-27T03:08:29.218Z,7.00
2019-03-27T03:10:58.739Z,6.90
2019-03-27T03:13:28.344Z,6.90
2019-03-27T03:15:57.783Z,6.90
2019-03-27T03:18:27.207Z,6.90
2019-03-27T03:20:56.879Z,6.90
2019-03-27T03:23:26.587Z,6.90
2019-03-27T03:25:56.021Z,6.90
2019-03-27T03:28:25.551Z,6.90
2019-03-27T03:30:55.086Z,6.90
2019-03-27T03:33:24.707Z,6.90
2019-03-27T03:35:54.312Z,6.90
2019-03-27T03:38:23.806Z,6.90
2019-03-27T03:40:54.400Z,6.90
2019-03-27T03:43:24.072Z,6.90
2019-03-27T03:45:53.517Z,6.80
2019-03-27T03:48:22.989Z,6.80
2019-03-27T03:50:53.527Z,6.90
2019-03-27T03:53:23.238Z,6.80
2019-03-27T03:55:52.882Z,6.80
2019-03-27T03:58:22.599Z,6.80
2019-03-27T04:00:52.979Z,6.80
2019-03-27T04:03:24.539Z,6.70
2019-03-27T04:05:54.017Z,6.70
2019-03-27T04:08:23.587Z,6.70
2019-03-27T04:10:53.390Z,6.70
2019-03-27T04:13:22.924Z,6.70
2019-03-27T04:15:52.483Z,6.70
2019-03-27T04:18:22.371Z,6.70
2019-03-27T04:20:52.018Z,6.70
2019-03-27T04:23:21.786Z,6.80
2019-03-27T04:26:09.244Z,6.80
2019-03-27T04:28:22.823Z,6.70
2019-03-27T04:30:52.571Z,6.70
2019-03-27T04:33:22.610Z,6.60
2019-03-27T04:35:52.163Z,6.60
2019-03-27T04:38:22.191Z,6.70
2019-03-27T04:40:51.698Z,6.70
2019-03-27T04:43:21.343Z,6.70
2019-03-27T04:45:50.811Z,6.80
2019-03-27T04:48:20.311Z,6.70
2019-03-27T04:50:50.025Z,6.70
2019-03-27T04:53:19.530Z,6.80
2019-03-27T04:55:48.987Z,6.90
2019-03-27T04:58:18.536Z,6.80
2019-03-27T05:00:48.007Z,6.90
2019-03-27T05:03:17.439Z,7.00
2019-03-27T05:05:46.910Z,7.00
2019-03-27T05:08:16.386Z,7.00
2019-03-27T05:10:45.815Z,6.90
2019-03-27T05:13:15.443Z,7.00
2019-03-27T05:15:45.031Z,7.00
2019-03-27T05:18:15.569Z,7.00
2019-03-27T05:20:44.975Z,7.10
2019-03-27T05:23:14.499Z,7.10
2019-03-27T05:25:44.038Z,6.90
2019-03-27T05:28:14.568Z,7.00
2019-03-27T05:30:44.040Z,7.10
2019-03-27T05:33:13.544Z,7.10
2019-03-27T05:35:45.279Z,7.10
2019-03-27T05:38:14.800Z,7.00
2019-03-27T05:40:44.311Z,7.10
2019-03-27T05:43:14.007Z,7.10
2019-03-27T05:45:43.691Z,7.20
2019-03-27T05:48:13.206Z,7.10
2019-03-27T05:50:43.836Z,7.20
2019-03-27T05:53:13.359Z,7.20
2019-03-27T05:55:44.447Z,7.10
2019-03-27T05:58:14.156Z,7.10
2019-03-27T06:00:43.739Z,7.20
2019-03-27T06:03:13.318Z,7.20
2019-03-27T06:05:42.943Z,7.20
2019-03-27T06:08:12.415Z,7.20
2019-03-27T06:10:42.038Z,7.30
2019-03-27T06:13:11.576Z,7.30
2019-03-27T06:15:41.064Z,7.30
2019-03-27T06:18:13.322Z,7.30
2019-03-27T06:20:42.702Z,7.40
2019-03-27T06:23:12.288Z,7.40
2019-03-27T06:25:41.775Z,7.60
2019-03-27T06:28:11.360Z,7.60
2019-03-27T06:30:40.808Z,7.70
2019-03-27T06:33:12.373Z,7.60
2019-03-27T06:35:41.959Z,7.70
2019-03-27T06:38:11.474Z,7.70
2019-03-27T06:40:40.967Z,7.60
2019-03-27T06:43:12.262Z,7.70
2019-03-27T06:45:41.708Z,7.70
2019-03-27T06:48:11.171Z,7.70
2019-03-27T06:50:43.663Z,7.70
2019-03-27T06:53:13.308Z,7.80
2019-03-27T06:55:42.971Z,7.70
2019-03-27T06:58:14.133Z,7.80
2019-03-27T07:00:43.651Z,7.90
2019-03-27T07:03:13.189Z,7.90
2019-03-27T07:05:42.969Z,8.00
2019-03-27T07:08:20.387Z,7.90
2019-03-27T07:10:50.078Z,8.00
2019-03-27T07:13:19.627Z,7.90
2019-03-27T07:15:49.127Z,8.00
2019-03-27T07:18:18.646Z,8.00
2019-03-27T07:20:48.154Z,8.10
2019-03-27T07:23:17.679Z,8.20
2019-03-27T07:25:47.382Z,8.20
2019-03-27T07:28:16.885Z,8.20
2019-03-27T07:30:46.287Z,8.20
2019-03-27T07:33:15.961Z,8.20
2019-03-27T07:35:45.355Z,8.00
2019-03-27T07:38:16.451Z,8.10
2019-03-27T07:40:47.735Z,8.00
2019-03-27T07:43:17.443Z,8.10
2019-03-27T07:45:46.982Z,8.10
2019-03-27T07:48:16.618Z,8.10
2019-03-27T07:50:46.156Z,8.00
2019-03-27T07:53:15.589Z,8.20
2019-03-27T07:55:45.095Z,8.20
2019-03-27T07:58:14.566Z,8.40
2019-03-27T08:00:44.146Z,8.40
2019-03-27T08:03:13.941Z,8.40
2019-03-27T08:05:43.499Z,8.40
2019-03-27T08:08:12.934Z,8.50
2019-03-27T08:10:42.560Z,8.50
2019-03-27T08:13:12.019Z,8.80
2019-03-27T08:15:41.645Z,8.80
2019-03-27T08:18:12.043Z,8.70
2019-03-27T08:20:41.523Z,8.70
2019-03-27T08:23:11.036Z,8.70
2019-03-27T08:25:40.630Z,8.70
2019-03-27T08:28:10.231Z,8.90
2019-03-27T08:30:39.980Z,9.00
2019-03-27T08:33:09.592Z,9.30
2019-03-27T08:35:39.253Z,9.20
2019-03-27T08:38:08.886Z,9.10
2019-03-27T08:40:38.472Z,9.10
2019-03-27T08:43:20.539Z,9.10
2019-03-27T08:45:41.764Z,9.00
2019-03-27T08:48:11.327Z,9.10
2019-03-27T08:50:41.920Z,9.10
2019-03-27T08:53:11.587Z,8.80
2019-03-27T08:55:41.219Z,9.00
2019-03-27T08:58:10.813Z,9.00
2019-03-27T09:00:46.910Z,9.20
2019-03-27T09:03:17.534Z,9.20
2019-03-27T09:05:47.079Z,9.30
2019-03-27T09:08:19.246Z,9.40
2019-03-27T09:10:50.045Z,9.50
2019-03-27T09:13:19.514Z,9.40
2019-03-27T09:15:49.173Z,9.50
2019-03-27T09:18:18.653Z,9.80
2019-03-27T09:20:48.202Z,9.90
2019-03-27T09:23:17.726Z,10.30
2019-03-27T09:25:47.398Z,10.40
2019-03-27T09:28:17.004Z,10.00
2019-03-27T09:30:46.364Z,9.70
2019-03-27T09:33:33.135Z,10.30
2019-03-27T09:36:02.762Z,10.20
2019-03-27T09:38:32.307Z,10.10
2019-03-27T09:41:01.773Z,10.00
2019-03-27T09:43:31.319Z,10.00
2019-03-27T09:46:00.884Z,10.10
2019-03-27T09:48:30.391Z,10.10
2019-03-27T09:51:00.063Z,10.30
2019-03-27T09:53:29.732Z,10.30
2019-03-27T09:55:59.334Z,10.60
2019-03-27T09:58:28.883Z,10.50
2019-03-27T10:00:59.767Z,10.60
2019-03-27T10:03:29.377Z,10.50
2019-03-27T10:05:58.882Z,10.70
2019-03-27T10:08:28.342Z,10.80
2019-03-27T10:10:57.839Z,10.70
2019-03-27T10:13:27.420Z,10.80
2019-03-27T10:15:56.991Z,11.00
2019-03-27T10:18:26.614Z,11.30
2019-03-27T10:20:56.271Z,11.30
2019-03-27T10:23:25.807Z,11.00
2019-03-27T10:25:55.423Z,11.00
2019-03-27T10:28:25.136Z,10.80
2019-03-27T10:30:54.612Z,11.00
2019-03-27T10:33:24.368Z,11.20
2019-03-27T10:35:54.927Z,11.40
2019-03-27T10:38:24.444Z,11.50
2019-03-27T10:40:54.119Z,11.80
2019-03-27T10:43:23.859Z,12.30
2019-03-27T10:45:54.475Z,12.40
2019-03-27T10:48:24.047Z,12.80
2019-03-27T10:50:53.542Z,12.20
2019-03-27T10:53:23.435Z,12.50
2019-03-27T10:55:53.092Z,12.00
2019-03-27T10:58:22.628Z,12.40
2019-03-27T11:00:52.191Z,12.40
2019-03-27T11:03:21.845Z,12.60
2019-03-27T11:05:51.395Z,12.30
2019-03-27T11:08:20.949Z,12.50
2019-03-27T11:10:50.681Z,12.70
2019-03-27T11:13:20.575Z,12.90
2019-03-27T11:15:50.168Z,12.60
2019-03-27T11:18:20.022Z,11.90
2019-03-27T11:20:49.634Z,12.30
2019-03-27T11:23:19.173Z,11.90
2019-03-27T11:25:48.914Z,12.00
2019-03-27T11:28:18.639Z,11.80
2019-03-27T11:30:48.478Z,11.90
2019-03-27T11:33:18.296Z,11.80
2019-03-27T11:35:47.852Z,12.30
2019-03-27T11:38:17.607Z,12.50
2019-03-27T11:40:47.466Z,12.70
2019-03-27T11:43:17.108Z,13.00
2019-03-27T11:45:48.821Z,12.80
2019-03-27T11:48:18.485Z,12.80
2019-03-27T11:50:48.083Z,12.70
2019-03-27T11:53:18.046Z,12.60
2019-03-27T11:55:47.754Z,12.40
2019-03-27T11:58:17.328Z,12.30
2019-03-27T12:00:54.361Z,12.40
2019-03-27T12:03:19.488Z,12.40
2019-03-27T12:05:49.101Z,12.40
2019-03-27T12:08:18.863Z,12.40
2019-03-27T12:10:48.726Z,12.50
2019-03-27T12:13:18.499Z,12.60
2019-03-27T12:15:48.195Z,12.50
2019-03-27T12:18:18.164Z,12.70
2019-03-27T12:20:58.202Z,12.70
2019-03-27T12:23:19.307Z,12.60
2019-03-27T12:25:48.978Z,12.70
2019-03-27T12:28:18.617Z,12.70
2019-03-27T12:30:48.289Z,12.50
2019-03-27T12:33:19.083Z,12.30
2019-03-27T12:35:49.171Z,12.50
2019-03-27T12:38:18.649Z,12.90
2019-03-27T12:40:48.124Z,13.30
2019-03-27T12:43:17.654Z,13.70
2019-03-27T12:45:47.211Z,14.20
2019-03-27T12:48:16.643Z,14.30
2019-03-27T12:50:46.400Z,14.90
2019-03-27T12:53:15.839Z,15.20
2019-03-27T12:55:45.322Z,15.40
2019-03-27T12:58:14.995Z,15.30
2019-03-27T13:00:45.418Z,15.70
2019-03-27T13:03:14.938Z,15.50
2019-03-27T13:05:44.543Z,15.30
2019-03-27T13:08:14.078Z,15.50
2019-03-27T13:10:43.639Z,14.80
2019-03-27T13:13:14.277Z,14.80
2019-03-27T13:15:43.815Z,15.10
2019-03-27T13:18:13.271Z,14.70
2019-03-27T13:20:42.988Z,15.10
2019-03-27T13:23:12.449Z,15.10
2019-03-27T13:25:41.925Z,15.20
2019-03-27T13:28:11.789Z,14.80
2019-03-27T13:30:41.502Z,14.80
2019-03-27T13:33:14.438Z,14.10
2019-03-27T13:35:47.118Z,13.60
2019-03-27T13:38:21.472Z,13.50
2019-03-27T13:40:51.548Z,13.00
2019-03-27T13:43:21.311Z,12.90
2019-03-27T13:45:51.111Z,12.50
2019-03-27T13:48:20.855Z,12.50
2019-03-27T13:50:51.187Z,12.30
2019-03-27T13:53:21.035Z,12.00
2019-03-27T13:55:52.606Z,11.70
2019-03-27T13:58:22.395Z,11.20
2019-03-27T14:00:52.147Z,11.30
2019-03-27T14:03:21.954Z,11.20
2019-03-27T14:05:52.345Z,11.20
2019-03-27T14:08:21.899Z,11.20
2019-03-27T14:10:52.823Z,11.00
2019-03-27T14:13:22.517Z,11.10
2019-03-27T14:15:54.651Z,11.10
2019-03-27T14:18:24.475Z,11.20
2019-03-27T14:20:54.376Z,11.20
2019-03-27T14:23:24.275Z,11.30
2019-03-27T14:25:53.926Z,11.30
2019-03-27T14:28:23.663Z,11.40
2019-03-27T14:30:54.040Z,11.50
2019-03-27T14:33:23.694Z,11.70
2019-03-27T14:35:54.674Z,11.50
2019-03-27T14:38:24.383Z,11.50
2019-03-27T14:40:54.522Z,11.30
2019-03-27T14:43:26.887Z,11.00
2019-03-27T14:45:55.423Z,11.00
2019-03-27T14:48:25.115Z,10.80
2019-03-27T14:50:54.755Z,10.60
2019-03-27T14:53:24.663Z,10.50
2019-03-27T14:55:54.433Z,10.40
2019-03-27T14:58:24.050Z,10.30
2019-03-27T15:00:55.593Z,10.30
2019-03-27T15:03:25.128Z,10.30
2019-03-27T15:05:55.120Z,10.20
2019-03-27T15:08:24.740Z,10.20
2019-03-27T15:10:55.717Z,10.20
2019-03-27T15:13:25.291Z,10.10
2019-03-27T15:15:55.246Z,10.00
2019-03-27T15:18:24.797Z,9.90
2019-03-27T15:20:54.635Z,9.80
2019-03-27T15:23:24.520Z,9.90
2019-03-27T15:25:54.166Z,9.80
2019-03-27T15:28:23.761Z,9.70
2019-03-27T15:30:53.471Z,9.70
2019-03-27T15:33:23.170Z,9.60
2019-03-27T15:35:52.726Z,9.60
2019-03-27T15:38:24.051Z,9.60
2019-03-27T15:40:54.214Z,9.50
2019-03-27T15:43:23.800Z,9.50
2019-03-27T15:45:53.471Z,9.50
2019-03-27T15:48:22.944Z,9.40
2019-03-27T15:50:57.071Z,9.40
2019-03-27T15:53:23.792Z,9.30
2019-03-27T15:55:53.351Z,9.30
2019-03-27T15:58:22.913Z,9.20
2019-03-27T16:00:52.604Z,9.20
2019-03-27T16:03:22.192Z,9.20
2019-03-27T16:05:51.850Z,9.20
2019-03-27T16:08:21.395Z,9.10
2019-03-27T16:10:51.058Z,9.10
2019-03-27T16:13:20.633Z,9.10
2019-03-27T16:15:50.448Z,9.20
2019-03-27T16:18:19.970Z,9.20
2019-03-27T16:20:49.581Z,9.30
2019-03-27T16:23:19.313Z,9.20
2019-03-27T16:25:48.990Z,9.10
2019-03-27T16:28:18.519Z,9.10
2019-03-27T16:30:48.197Z,9.00
2019-03-27T16:33:17.656Z,8.90
2019-03-27T16:35:51.207Z,8.70
2019-03-27T16:38:20.823Z,8.70
2019-03-27T16:40:50.653Z,8.50
2019-03-27T16:43:20.237Z,8.50
2019-03-27T16:45:50.439Z,8.40
2019-03-27T16:48:20.041Z,8.30
2019-03-27T16:50:52.144Z,8.30
2019-03-27T16:53:21.859Z,8.20
2019-03-27T16:55:51.530Z,8.10
2019-03-27T16:58:21.283Z,8.00
2019-03-27T17:00:53.362Z,7.90
2019-03-27T17:03:23.039Z,7.80
2019-03-27T17:05:54.276Z,7.70
2019-03-27T17:08:29.603Z,7.60
2019-03-27T17:11:01.415Z,7.40
2019-03-27T17:13:31.107Z,7.30
2019-03-27T17:16:00.683Z,7.30
2019-03-27T17:18:30.231Z,7.20
2019-03-27T17:21:00.759Z,7.10
2019-03-27T17:23:30.396Z,7.10
2019-03-27T17:26:03.074Z,7.10
2019-03-27T17:28:32.607Z,7.00
2019-03-27T17:31:02.202Z,6.90
2019-03-27T17:33:31.791Z,6.80
2019-03-27T17:36:01.682Z,6.70
2019-03-27T17:38:32.403Z,6.70
2019-03-27T17:41:02.176Z,6.50
2019-03-27T17:43:32.755Z,6.50
2019-03-27T17:46:05.124Z,6.40
2019-03-27T17:48:34.742Z,6.30
2019-03-27T17:51:04.437Z,6.20
2019-03-27T17:53:34.130Z,6.10
2019-03-27T17:56:03.886Z,6.10
2019-03-27T17:58:33.611Z,5.90
2019-03-27T18:01:05.922Z,5.90
2019-03-27T18:03:35.415Z,5.90
2019-03-27T18:06:05.043Z,5.90
2019-03-27T18:08:34.991Z,5.90
2019-03-27T18:11:08.217Z,5.90
2019-03-27T18:13:40.152Z,5.80
2019-03-27T18:16:09.315Z,5.80
2019-03-27T18:18:38.907Z,5.90
2019-03-27T18:21:08.471Z,5.80
2019-03-27T18:23:46.049Z,5.80
2019-03-27T18:26:09.557Z,5.90
2019-03-27T18:28:39.183Z,5.90
2019-03-27T18:31:08.797Z,5.80
2019-03-27T18:33:41.183Z,5.80
2019-03-27T18:36:12.199Z,5.80
2019-03-27T18:38:42.071Z,5.70
2019-03-27T18:41:11.539Z,5.70
2019-03-27T18:43:42.363Z,5.60
2019-03-27T18:46:11.795Z,5.60
2019-03-27T18:48:44.507Z,5.60
2019-03-27T18:51:17.223Z,5.60
2019-03-27T18:53:58.979Z,5.50
2019-03-27T18:56:18.197Z,5.60
2019-03-27T18:58:47.711Z,5.60
2019-03-27T19:01:18.258Z,5.60
2019-03-27T19:03:47.944Z,5.50
2019-03-27T19:06:17.515Z,5.50
2019-03-27T19:08:50.055Z,5.50
2019-03-27T19:11:19.535Z,5.50
2019-03-27T19:13:49.207Z,5.40
2019-03-27T19:16:18.887Z,5.40
2019-03-27T19:18:49.300Z,5.30
2019-03-27T19:21:18.860Z,5.30
2019-03-27T19:23:49.257Z,5.30
2019-03-27T19:26:18.665Z,5.30
2019-03-27T19:28:48.296Z,5.20
2019-03-27T19:31:17.762Z,5.20
2019-03-27T19:33:47.387Z,5.10
2019-03-27T19:36:16.927Z,5.10
2019-03-27T19:38:46.839Z,5.00
2019-03-27T19:41:16.500Z,5.00
2019-03-27T19:43:46.084Z,5.00
2019-03-27T19:46:15.735Z,4.90
2019-03-27T19:48:45.411Z,4.80
2019-03-27T19:51:14.871Z,4.80
2019-03-27T19:53:44.599Z,4.70
2019-03-27T19:56:14.343Z,4.70
2019-03-27T19:58:43.841Z,4.60
2019-03-27T20:01:13.363Z,4.50
2019-03-27T20:03:42.926Z,4.50
2019-03-27T20:06:12.430Z,4.50
2019-03-27T20:08:42.898Z,4.50
2019-03-27T20:11:12.429Z,4.50
2019-03-27T20:13:41.930Z,4.50
2019-03-27T20:16:12.904Z,4.50
2019-03-27T20:18:42.420Z,4.40
2019-03-27T20:21:11.977Z,4.40
2019-03-27T20:23:41.458Z,4.40
2019-03-27T20:26:11.078Z,4.30
2019-03-27T20:28:41.691Z,4.20
2019-03-27T20:31:14.507Z,4.10
2019-03-27T20:33:44.152Z,4.00
2019-03-27T20:36:13.760Z,3.90
2019-03-27T20:38:44.464Z,3.90
2019-03-27T20:41:14.067Z,3.90
2019-03-27T20:43:43.736Z,3.80
2019-03-27T20:46:24.423Z,3.70
2019-03-27T20:48:46.363Z,3.80
2019-03-27T20:51:15.839Z,3.80
2019-03-27T20:53:45.371Z,3.70
2019-03-27T20:56:15.156Z,3.80
2019-03-27T20:58:44.996Z,3.80
2019-03-27T21:01:14.481Z,3.70
2019-03-27T21:03:45.579Z,3.80
2019-03-27T21:06:15.219Z,3.80
2019-03-27T21:08:44.791Z,3.80
2019-03-27T21:11:14.423Z,3.90
2019-03-27T21:13:43.966Z,3.90
2019-03-27T21:16:13.657Z,4.00
2019-03-27T21:18:43.263Z,4.10
2019-03-27T21:21:15.138Z,4.10
2019-03-27T21:23:44.730Z,4.10
2019-03-27T21:26:14.355Z,4.20
2019-03-27T21:28:43.847Z,4.20
2019-03-27T21:31:17.975Z,4.20
2019-03-27T21:33:47.635Z,4.20
2019-03-27T21:36:17.334Z,4.10
2019-03-27T21:38:47.342Z,4.10
2019-03-27T21:41:16.976Z,4.00
2019-03-27T21:43:46.718Z,4.00
2019-03-27T21:46:16.347Z,3.90
2019-03-27T21:48:45.858Z,3.90
2019-03-27T21:51:15.467Z,3.80
2019-03-27T21:53:50.420Z,3.80
2019-03-27T21:56:17.414Z,3.70
2019-03-27T21:58:46.867Z,3.60
2019-03-27T22:01:16.477Z,3.50
2019-03-27T22:03:45.997Z,3.40
2019-03-27T22:06:15.715Z,3.40
2019-03-27T22:08:45.163Z,3.30
2019-03-27T22:11:18.160Z,3.30
2019-03-27T22:13:47.763Z,3.20
2019-03-27T22:16:17.383Z,3.10
2019-03-27T22:18:46.959Z,3.10
2019-03-27T22:21:16.862Z,3.00
2019-03-27T22:23:46.415Z,3.00
2019-03-27T22:26:17.859Z,3.00
2019-03-27T22:28:47.627Z,3.00
2019-03-27T22:31:17.462Z,3.00
2019-03-27T22:33:46.883Z,2.90
2019-03-27T22:36:16.777Z,2.80
2019-03-27T22:38:46.267Z,2.80
2019-03-27T22:41:15.853Z,2.80
2019-03-27T22:43:45.515Z,2.70
2019-03-27T22:46:17.528Z,2.70
2019-03-27T22:48:47.336Z,2.60
2019-03-27T22:51:17.163Z,2.60
2019-03-27T22:53:46.620Z,2.60
2019-03-27T22:56:16.398Z,2.60
2019-03-27T22:58:46.043Z,2.60
2019-03-27T23:01:15.590Z,2.70
2019-03-27T23:03:46.291Z,2.90
2019-03-27T23:06:16.147Z,3.00
2019-03-27T23:08:45.628Z,3.20
2019-03-27T23:11:15.167Z,3.30
2019-03-27T23:13:44.842Z,3.50
2019-03-27T23:16:14.367Z,3.60
2019-03-27T23:18:43.970Z,3.70
2019-03-27T23:21:13.700Z,3.70
2019-03-27T23:23:43.286Z,3.80
2019-03-27T23:26:15.736Z,3.90
2019-03-27T23:28:45.471Z,3.90
2019-03-27T23:31:14.975Z,4.00
2019-03-27T23:33:44.663Z,4.10
2019-03-27T23:36:14.295Z,4.10
2019-03-27T23:38:43.883Z,4.20
2019-03-27T23:41:13.686Z,4.30
2019-03-27T23:43:44.411Z,4.40
2019-03-27T23:46:13.927Z,4.50
2019-03-27T23:48:43.461Z,4.50
2019-03-27T23:51:14.347Z,4.60
2019-03-27T23:53:43.975Z,4.70
2019-03-27T23:56:16.940Z,4.70
2019-03-27T23:58:47.335Z,4.90
